createdAt,value
2023-01-13T00:01:24.459Z,1.40
2023-01-13T00:03:51.370Z,1.65
2023-01-13T00:06:21.611Z,1.50
2023-01-13T00:08:52.695Z,1.15
2023-01-13T00:11:20.631Z,1.20
2023-01-13T00:13:47.589Z,1.30
2023-01-13T00:16:17.205Z,1.40
2023-01-13T00:18:45.145Z,1.30
2023-01-13T00:21:13.365Z,1.33
2023-01-13T00:23:40.710Z,1.45
2023-01-13T00:26:10.374Z,1.30
2023-01-13T00:28:37.417Z,1.13
2023-01-13T00:31:11.773Z,1.30
2023-01-13T00:33:39.375Z,1.30
2023-01-13T00:36:08.506Z,1.20
2023-01-13T00:38:37.902Z,1.38
2023-01-13T00:41:07.587Z,1.27
2023-01-13T00:43:35.902Z,1.10
2023-01-13T00:46:04.966Z,1.40
2023-01-13T00:48:32.616Z,1.40
2023-01-13T00:51:02.971Z,1.13
2023-01-13T00:53:34.398Z,1.70
2023-01-13T00:56:06.554Z,1.33
2023-01-13T00:58:35.187Z,1.58
2023-01-13T01:01:11.356Z,1.20
2023-01-13T01:03:38.886Z,1.27
2023-01-13T01:06:13.044Z,1.45
2023-01-13T01:08:41.012Z,1.10
2023-01-13T01:11:10.419Z,1.23
2023-01-13T01:13:38.058Z,1.75
2023-01-13T01:16:07.150Z,1.33
2023-01-13T01:18:35.367Z,1.23
2023-01-13T01:21:02.939Z,1.20
2023-01-13T01:23:30.230Z,1.52
2023-01-13T01:26:04.800Z,1.50
2023-01-13T01:28:32.757Z,1.50
2023-01-13T01:31:00.028Z,1.25
2023-01-13T01:33:27.481Z,1.20
2023-01-13T01:35:54.965Z,1.42
2023-01-13T01:38:23.447Z,1.27
2023-01-13T01:40:50.326Z,1.40
2023-01-13T01:43:39.076Z,1.30
2023-01-13T01:46:06.435Z,1.20
2023-01-13T01:48:40.384Z,1.35
2023-01-13T01:51:12.588Z,1.30
2023-01-13T01:53:40.167Z,1.40
2023-01-13T01:56:09.321Z,1.52
2023-01-13T01:58:45.633Z,1.48
2023-01-13T02:01:13.682Z,1.50
2023-01-13T02:03:46.402Z,1.30
2023-01-13T02:06:14.956Z,1.35
2023-01-13T02:08:41.792Z,1.58
2023-01-13T02:11:31.660Z,1.70
2023-01-13T02:13:58.612Z,1.40
2023-01-13T02:16:25.574Z,1.67
2023-01-13T02:19:10.546Z,1.30
2023-01-13T02:22:18.429Z,1.50
2023-01-13T02:25:08.369Z,1.70
2023-01-13T02:27:57.727Z,1.63
2023-01-13T02:31:08.405Z,1.50
2023-01-13T02:33:59.260Z,1.67
2023-01-13T02:36:39.806Z,1.73
2023-01-13T02:39:14.626Z,1.77
2023-01-13T02:42:16.558Z,1.70
2023-01-13T02:44:51.707Z,1.80
2023-01-13T02:47:20.634Z,1.75
2023-01-13T02:50:03.468Z,1.90
2023-01-13T02:52:37.939Z,1.90
2023-01-13T02:55:57.398Z,1.73
2023-01-13T02:58:27.439Z,1.65
2023-01-13T03:00:56.255Z,1.75
2023-01-13T03:03:23.382Z,2.08
2023-01-13T03:05:53.953Z,1.92
2023-01-13T03:08:42.986Z,1.88
2023-01-13T03:11:13.310Z,1.60
2023-01-13T03:13:57.061Z,1.60
2023-01-13T03:16:45.751Z,1.30
2023-01-13T03:19:25.120Z,1.52
2023-01-13T03:21:57.364Z,1.73
2023-01-13T03:24:42.624Z,1.95
2023-01-13T03:27:15.272Z,1.98
2023-01-13T03:29:50.842Z,1.60
2023-01-13T03:32:27.121Z,1.42
2023-01-13T03:35:20.224Z,1.50
2023-01-13T03:37:57.875Z,1.60
2023-01-13T03:40:29.948Z,1.27
2023-01-13T03:43:24.272Z,1.48
2023-01-13T03:45:55.856Z,1.52
2023-01-13T03:48:25.293Z,1.40
2023-01-13T03:50:56.489Z,1.67
2023-01-13T03:53:32.603Z,1.73
2023-01-13T03:56:07.332Z,1.70
2023-01-13T03:58:39.700Z,1.60
2023-01-13T04:01:15.828Z,1.60
2023-01-13T04:03:48.391Z,1.70
2023-01-13T04:06:28.433Z,1.80
2023-01-13T04:09:08.958Z,1.67
2023-01-13T04:11:42.893Z,1.55
2023-01-13T04:14:12.780Z,1.70
2023-01-13T04:16:40.045Z,1.75
2023-01-13T04:19:06.900Z,2.40
2023-01-13T04:21:35.260Z,2.17
2023-01-13T04:24:02.180Z,2.10
2023-01-13T04:26:29.155Z,2.47
2023-01-13T04:28:55.983Z,1.92
2023-01-13T04:31:23.043Z,2.08
2023-01-13T04:33:49.877Z,2.20
2023-01-13T04:36:16.806Z,1.67
2023-01-13T04:38:43.753Z,1.60
2023-01-13T04:41:10.699Z,1.90
2023-01-13T04:43:37.625Z,1.67
2023-01-13T04:46:04.575Z,2.33
2023-01-13T04:48:31.421Z,3.05
2023-01-13T04:50:58.243Z,3.50
2023-01-13T04:53:25.205Z,3.60
2023-01-13T04:55:52.468Z,2.60
2023-01-13T04:58:19.488Z,2.90
2023-01-13T05:00:46.497Z,2.60
2023-01-13T05:03:13.363Z,2.83
2023-01-13T05:05:40.256Z,3.33
2023-01-13T05:08:07.263Z,3.60
2023-01-13T05:10:34.107Z,3.30
2023-01-13T05:13:19.627Z,3.88
2023-01-13T05:16:06.710Z,3.08
2023-01-13T05:18:33.939Z,4.10
2023-01-13T05:21:00.920Z,3.53
2023-01-13T05:23:46.782Z,2.85
2023-01-13T05:28:40.474Z,2.90
2023-01-13T05:31:07.352Z,3.40
2023-01-13T05:33:35.783Z,3.70
2023-01-13T05:36:04.021Z,3.53
2023-01-13T05:38:30.996Z,2.90
2023-01-13T05:41:18.182Z,2.80
2023-01-13T05:43:45.104Z,3.22
2023-01-13T05:46:12.569Z,3.10
2023-01-13T05:48:42.212Z,3.17
2023-01-13T05:51:11.689Z,3.55
2023-01-13T05:53:40.931Z,3.30
2023-01-13T05:56:09.018Z,3.50
2023-01-13T05:58:35.908Z,3.03
2023-01-13T06:01:07.313Z,3.25
2023-01-13T06:03:34.717Z,3.50
2023-01-13T06:06:04.022Z,3.40
2023-01-13T06:08:32.018Z,2.85
2023-01-13T06:10:59.108Z,3.47
2023-01-13T06:13:26.573Z,3.20
2023-01-13T06:16:00.334Z,3.20
2023-01-13T06:18:28.129Z,3.15
2023-01-13T06:20:55.210Z,3.33
2023-01-13T06:23:22.149Z,3.70
2023-01-13T06:26:04.118Z,3.63
2023-01-13T06:28:31.038Z,3.35
2023-01-13T06:31:00.576Z,3.55
2023-01-13T06:33:33.315Z,4.28
2023-01-13T06:36:05.389Z,3.28
2023-01-13T06:38:36.343Z,3.55
2023-01-13T06:41:04.421Z,3.30
2023-01-13T06:43:31.337Z,4.20
2023-01-13T06:45:58.221Z,4.30
2023-01-13T06:48:35.142Z,3.75
2023-01-13T06:51:03.834Z,3.85
2023-01-13T06:53:31.260Z,4.65
2023-01-13T06:55:58.115Z,3.83
2023-01-13T06:58:24.973Z,4.05
2023-01-13T07:00:51.949Z,4.30
2023-01-13T07:03:19.413Z,3.78
2023-01-13T07:05:53.355Z,4.22
2023-01-13T07:08:20.747Z,4.20
2023-01-13T07:10:47.822Z,4.45
2023-01-13T07:13:33.049Z,3.83
2023-01-13T07:16:02.451Z,4.30
2023-01-13T07:18:34.492Z,3.78
2023-01-13T07:21:10.516Z,3.65
2023-01-13T07:23:39.912Z,4.00
2023-01-13T07:26:09.010Z,4.03
2023-01-13T07:28:36.462Z,3.72
2023-01-13T07:31:03.931Z,3.67
2023-01-13T07:33:33.878Z,3.38
2023-01-13T07:36:04.469Z,3.33
2023-01-13T07:38:32.979Z,3.80
2023-01-13T07:41:23.354Z,3.53
2023-01-13T07:43:51.644Z,2.95
2023-01-13T07:46:19.363Z,2.92
2023-01-13T07:48:48.657Z,3.35
2023-01-13T07:51:15.944Z,3.22
2023-01-13T07:53:42.860Z,3.28
2023-01-13T07:56:09.786Z,2.55
2023-01-13T07:58:37.236Z,4.50
2023-01-13T08:01:12.479Z,3.10
2023-01-13T08:06:07.546Z,3.50
2023-01-13T08:08:34.574Z,3.72
2023-01-13T08:11:03.180Z,4.28
2023-01-13T08:13:30.411Z,3.92
2023-01-13T08:16:03.743Z,4.22
2023-01-13T08:18:32.211Z,4.03
2023-01-13T08:21:03.251Z,4.18
2023-01-13T08:23:30.349Z,3.85
2023-01-13T08:26:02.711Z,4.65
2023-01-13T08:28:30.322Z,4.05
2023-01-13T08:31:09.775Z,5.28
2023-01-13T08:33:36.785Z,4.28
2023-01-13T08:36:06.572Z,4.75
2023-01-13T08:38:34.859Z,4.43
2023-01-13T08:41:08.361Z,5.07
2023-01-13T08:43:35.449Z,4.85
2023-01-13T08:46:04.911Z,4.05
2023-01-13T08:48:32.643Z,5.03
2023-01-13T08:51:08.947Z,4.78
2023-01-13T08:53:35.942Z,4.78
2023-01-13T08:56:07.706Z,8.07
2023-01-13T08:58:34.657Z,4.35
2023-01-13T09:01:05.765Z,4.78
2023-01-13T09:03:32.907Z,5.15
2023-01-13T09:05:59.956Z,5.00
2023-01-13T09:08:26.821Z,4.43
2023-01-13T09:10:54.088Z,4.93
2023-01-13T09:13:21.879Z,4.88
2023-01-13T09:15:49.059Z,5.05
2023-01-13T09:18:16.018Z,5.10
2023-01-13T09:20:42.908Z,5.25
2023-01-13T09:23:10.915Z,4.60
2023-01-13T09:25:38.905Z,4.85
2023-01-13T09:28:06.284Z,4.78
2023-01-13T09:30:33.226Z,5.43
2023-01-13T09:33:18.959Z,5.03
2023-01-13T09:35:45.964Z,4.82
2023-01-13T09:38:12.808Z,5.22
2023-01-13T09:40:44.168Z,4.70
2023-01-13T09:43:52.393Z,5.00
2023-01-13T09:46:50.050Z,4.70
2023-01-13T09:49:22.305Z,4.93
2023-01-13T09:51:58.930Z,4.53
2023-01-13T09:54:38.772Z,5.72
2023-01-13T09:57:17.910Z,5.38
2023-01-13T09:59:45.750Z,5.63
2023-01-13T10:02:39.826Z,4.90
2023-01-13T10:05:12.164Z,4.55
2023-01-13T10:07:46.752Z,5.10
2023-01-13T10:10:20.370Z,6.20
2023-01-13T10:13:09.179Z,4.70
2023-01-13T10:15:36.142Z,4.20
2023-01-13T10:18:18.483Z,5.32
2023-01-13T10:21:11.372Z,5.88
2023-01-13T10:23:51.615Z,4.57
2023-01-13T10:26:31.149Z,4.97
2023-01-13T10:28:58.491Z,5.22
2023-01-13T10:31:26.509Z,4.38
2023-01-13T10:33:59.823Z,6.20
2023-01-13T10:36:26.842Z,5.05
2023-01-13T10:39:08.574Z,4.38
2023-01-13T10:41:36.417Z,4.70
2023-01-13T10:44:15.974Z,5.20
2023-01-13T10:46:57.596Z,5.35
2023-01-13T10:49:36.955Z,5.18
2023-01-13T10:52:23.891Z,5.05
2023-01-13T10:54:55.211Z,5.25
2023-01-13T10:57:27.789Z,5.25
2023-01-13T10:59:55.815Z,4.63
2023-01-13T11:02:34.304Z,5.00
2023-01-13T11:05:21.297Z,4.95
2023-01-13T11:07:52.347Z,5.25
2023-01-13T11:10:31.463Z,4.60
2023-01-13T11:13:23.912Z,4.35
2023-01-13T11:16:11.048Z,4.70
2023-01-13T11:18:37.991Z,3.90
2023-01-13T11:21:11.829Z,4.88
2023-01-13T11:23:46.418Z,5.70
2023-01-13T11:26:22.108Z,4.72
2023-01-13T11:29:08.535Z,5.60
2023-01-13T11:31:47.436Z,6.47
2023-01-13T11:34:39.575Z,6.40
2023-01-13T11:37:26.003Z,5.97
2023-01-13T11:40:23.754Z,5.30
2023-01-13T11:43:04.280Z,5.45
2023-01-13T11:45:40.406Z,4.35
2023-01-13T11:48:23.123Z,6.78
2023-01-13T11:51:02.014Z,6.03
2023-01-13T11:53:54.023Z,6.25
2023-01-13T11:56:57.587Z,5.32
2023-01-13T11:59:45.479Z,5.97
2023-01-13T12:02:21.143Z,5.90
2023-01-13T12:04:56.867Z,5.93
2023-01-13T12:08:01.307Z,6.13
2023-01-13T12:10:36.982Z,6.50
2023-01-13T12:13:20.879Z,6.97
2023-01-13T12:15:53.673Z,6.50
2023-01-13T12:18:55.637Z,6.60
2023-01-13T12:21:26.985Z,7.88
2023-01-13T12:24:23.385Z,7.15
2023-01-13T12:27:00.587Z,7.40
2023-01-13T12:29:35.069Z,7.32
2023-01-13T12:32:06.929Z,7.93
2023-01-13T12:34:45.778Z,8.82
2023-01-13T12:37:32.723Z,8.07
2023-01-13T12:40:22.784Z,9.10
2023-01-13T12:43:25.011Z,8.88
2023-01-13T12:45:52.090Z,9.10
2023-01-13T12:48:55.349Z,8.68
2023-01-13T12:51:29.409Z,8.27
2023-01-13T12:53:56.978Z,9.93
2023-01-13T12:56:43.938Z,9.55
2023-01-13T12:59:17.017Z,9.90
2023-01-13T13:01:45.948Z,8.48
2023-01-13T13:04:42.915Z,9.90
2023-01-13T13:07:26.883Z,10.52
2023-01-13T13:10:03.114Z,10.40
2023-01-13T13:13:00.507Z,11.07
2023-01-13T13:15:34.981Z,10.23
2023-01-13T13:18:27.375Z,12.60
2023-01-13T13:21:08.864Z,11.13
2023-01-13T13:23:53.831Z,9.90
2023-01-13T13:26:30.941Z,10.90
2023-01-13T13:29:28.793Z,10.52
2023-01-13T13:31:55.685Z,10.38
2023-01-13T13:34:22.521Z,10.10
2023-01-13T13:37:27.895Z,9.40
2023-01-13T13:40:13.727Z,9.27
2023-01-13T13:43:03.591Z,10.15
2023-01-13T13:45:49.117Z,10.75
2023-01-13T13:48:27.472Z,10.55
2023-01-13T13:51:02.405Z,10.57
2023-01-13T13:53:41.945Z,11.30
2023-01-13T13:56:23.324Z,9.68
2023-01-13T13:58:50.630Z,10.57
2023-01-13T14:01:30.303Z,10.52
2023-01-13T14:04:28.165Z,11.10
2023-01-13T14:07:21.758Z,11.43
2023-01-13T14:09:56.609Z,9.57
2023-01-13T14:12:25.982Z,9.90
2023-01-13T14:14:56.841Z,9.82
2023-01-13T14:17:31.240Z,10.57
2023-01-13T14:20:01.281Z,9.93
2023-01-13T14:22:28.757Z,10.52
2023-01-13T14:24:57.783Z,10.43
2023-01-13T14:27:29.822Z,10.02
2023-01-13T14:30:00.474Z,10.80
2023-01-13T14:32:35.396Z,11.55
2023-01-13T14:35:06.583Z,10.23
2023-01-13T14:37:38.543Z,11.27
2023-01-13T14:40:07.894Z,10.68
2023-01-13T14:42:35.660Z,11.82
2023-01-13T14:45:03.461Z,10.30
2023-01-13T14:47:34.117Z,10.15
2023-01-13T14:50:19.556Z,10.05
2023-01-13T14:52:57.024Z,10.07
2023-01-13T14:55:41.519Z,9.90
2023-01-13T14:58:23.602Z,13.10
2023-01-13T15:00:52.169Z,10.98
2023-01-13T15:03:21.118Z,11.27
2023-01-13T15:05:50.350Z,12.13
2023-01-13T15:08:26.096Z,10.55
2023-01-13T15:11:01.808Z,11.75
2023-01-13T15:13:35.655Z,11.32
2023-01-13T15:16:19.028Z,11.57
2023-01-13T15:18:46.986Z,11.60
2023-01-13T15:21:15.836Z,11.68
2023-01-13T15:23:43.334Z,12.65
2023-01-13T15:26:30.735Z,11.48
2023-01-13T15:28:59.142Z,13.57
2023-01-13T15:31:27.497Z,11.82
2023-01-13T15:33:54.864Z,11.20
2023-01-13T15:36:29.651Z,13.43
2023-01-13T15:38:58.022Z,13.85
2023-01-13T15:41:44.032Z,12.75
2023-01-13T15:44:30.614Z,12.38
2023-01-13T15:47:00.819Z,12.07
2023-01-13T15:49:38.346Z,11.82
2023-01-13T15:52:23.199Z,12.43
2023-01-13T15:54:51.543Z,12.80
2023-01-13T15:57:24.852Z,12.38
2023-01-13T15:59:55.015Z,12.13
2023-01-13T16:02:22.789Z,13.52
2023-01-13T16:04:51.469Z,12.20
2023-01-13T16:07:19.094Z,11.95
2023-01-13T16:09:46.558Z,10.73
2023-01-13T16:12:14.129Z,11.02
2023-01-13T16:14:41.137Z,10.82
2023-01-13T16:17:30.387Z,12.00
2023-01-13T16:19:57.265Z,11.95
2023-01-13T16:22:24.155Z,11.05
2023-01-13T16:24:51.110Z,12.10
2023-01-13T16:27:20.546Z,12.60
2023-01-13T16:29:48.831Z,13.32
2023-01-13T16:32:17.651Z,12.70
2023-01-13T16:34:44.746Z,11.85
2023-01-13T16:37:31.835Z,11.48
2023-01-13T16:39:58.905Z,12.23
2023-01-13T16:42:25.733Z,12.68
2023-01-13T16:44:53.098Z,11.18
2023-01-13T16:47:20.221Z,11.45
2023-01-13T16:49:47.286Z,12.52
2023-01-13T16:52:14.210Z,13.68
2023-01-13T16:54:41.162Z,12.75
2023-01-13T16:57:13.200Z,12.48
2023-01-13T16:59:40.305Z,12.65
2023-01-13T17:02:15.627Z,13.80
2023-01-13T17:04:43.538Z,13.15
2023-01-13T17:07:16.833Z,14.25
2023-01-13T17:09:43.941Z,13.57
2023-01-13T17:12:11.648Z,13.45
2023-01-13T17:14:38.781Z,15.35
2023-01-13T17:17:05.716Z,14.40
2023-01-13T17:19:32.618Z,14.85
2023-01-13T17:21:59.486Z,14.48
2023-01-13T17:24:27.599Z,14.45
2023-01-13T17:26:54.695Z,15.52
2023-01-13T17:29:25.587Z,15.00
2023-01-13T17:31:53.395Z,16.35
2023-01-13T17:34:21.280Z,15.77
2023-01-13T17:36:48.789Z,16.80
2023-01-13T17:39:21.738Z,15.02
2023-01-13T17:41:49.005Z,16.55
2023-01-13T17:44:18.432Z,15.40
2023-01-13T17:46:45.880Z,14.77
2023-01-13T17:49:14.315Z,13.93
2023-01-13T17:51:41.539Z,14.60
2023-01-13T17:54:12.432Z,14.70
2023-01-13T17:56:40.412Z,13.68
2023-01-13T17:59:10.122Z,12.60
2023-01-13T18:01:37.910Z,14.10
2023-01-13T18:04:07.023Z,14.55
2023-01-13T18:06:33.982Z,14.93
2023-01-13T18:09:01.199Z,14.13
2023-01-13T18:11:28.264Z,14.30
2023-01-13T18:13:57.294Z,15.35
2023-01-13T18:16:27.078Z,14.38
2023-01-13T18:19:18.782Z,15.25
2023-01-13T18:22:05.108Z,14.80
2023-01-13T18:24:50.778Z,14.63
2023-01-13T18:27:22.683Z,16.42
2023-01-13T18:29:55.162Z,16.63
2023-01-13T18:32:24.289Z,15.27
2023-01-13T18:35:01.628Z,16.63
2023-01-13T18:37:32.885Z,16.92
2023-01-13T18:39:59.753Z,15.13
2023-01-13T18:42:45.374Z,15.70
2023-01-13T18:45:12.435Z,14.57
2023-01-13T18:47:42.298Z,15.90
2023-01-13T18:50:12.280Z,14.82
2023-01-13T18:52:39.246Z,15.65
2023-01-13T18:55:06.588Z,16.27
2023-01-13T18:57:35.850Z,15.48
2023-01-13T19:00:04.192Z,15.98
2023-01-13T19:02:31.698Z,17.58
2023-01-13T19:04:58.654Z,15.77
2023-01-13T19:07:28.693Z,17.15
2023-01-13T19:09:56.154Z,16.15
2023-01-13T19:12:26.407Z,14.95
2023-01-13T19:14:58.007Z,14.45
2023-01-13T19:17:27.112Z,13.52
2023-01-13T19:19:55.938Z,14.27
2023-01-13T19:22:31.225Z,15.48
2023-01-13T19:24:59.112Z,14.10
2023-01-13T19:27:29.815Z,15.23
2023-01-13T19:30:03.950Z,13.88
2023-01-13T19:32:32.840Z,15.00
2023-01-13T19:34:59.918Z,15.38
2023-01-13T19:37:30.541Z,15.80
2023-01-13T19:40:00.950Z,15.20
2023-01-13T19:42:46.388Z,15.35
2023-01-13T19:45:26.864Z,16.23
2023-01-13T19:47:54.886Z,15.75
2023-01-13T19:50:22.033Z,15.65
2023-01-13T19:52:48.937Z,15.73
2023-01-13T19:55:15.864Z,16.48
2023-01-13T19:57:43.729Z,15.45
2023-01-13T20:00:14.130Z,14.93
2023-01-13T20:02:47.971Z,15.27
2023-01-13T20:05:22.388Z,14.63
2023-01-13T20:07:50.353Z,17.17
2023-01-13T20:10:19.384Z,15.40
2023-01-13T20:12:46.308Z,15.65
2023-01-13T20:15:13.632Z,16.38
2023-01-13T20:17:41.592Z,16.13
2023-01-13T20:20:09.841Z,15.75
2023-01-13T20:22:40.756Z,14.63
2023-01-13T20:25:09.274Z,16.90
2023-01-13T20:27:37.041Z,17.38
2023-01-13T20:30:06.340Z,16.92
2023-01-13T20:32:33.231Z,17.88
2023-01-13T20:35:00.238Z,15.68
2023-01-13T20:37:27.348Z,15.32
2023-01-13T20:39:55.382Z,14.63
2023-01-13T20:42:32.076Z,15.93
2023-01-13T20:45:00.612Z,16.05
2023-01-13T20:47:29.031Z,18.08
2023-01-13T20:49:56.085Z,17.05
2023-01-13T20:52:23.094Z,16.75
2023-01-13T20:54:49.985Z,16.92
2023-01-13T20:57:16.968Z,18.35
2023-01-13T20:59:44.024Z,17.60
2023-01-13T21:02:16.320Z,17.20
2023-01-13T21:04:43.861Z,19.17
2023-01-13T21:07:11.622Z,18.13
2023-01-13T21:09:38.679Z,18.70
2023-01-13T21:12:25.615Z,18.73
2023-01-13T21:15:11.140Z,16.98
2023-01-13T21:17:56.871Z,18.05
2023-01-13T21:20:23.847Z,16.17
2023-01-13T21:22:51.177Z,18.63
2023-01-13T21:25:19.201Z,18.38
2023-01-13T21:27:46.155Z,18.25
2023-01-13T21:30:15.034Z,17.48
2023-01-13T21:32:43.717Z,20.02
2023-01-13T21:35:12.041Z,17.77
2023-01-13T21:37:40.341Z,18.88
2023-01-13T21:40:12.150Z,19.17
2023-01-13T21:42:57.485Z,19.15
2023-01-13T21:45:42.893Z,20.27
2023-01-13T21:48:09.802Z,20.10
2023-01-13T21:50:38.299Z,20.08
2023-01-13T21:53:07.969Z,21.67
2023-01-13T21:55:36.831Z,21.25
2023-01-13T21:58:13.112Z,21.42
2023-01-13T22:00:42.235Z,20.08
2023-01-13T22:03:10.662Z,19.90
2023-01-13T22:05:38.565Z,22.08
2023-01-13T22:08:06.518Z,20.25
2023-01-13T22:10:34.170Z,20.95
2023-01-13T22:13:22.535Z,19.02
2023-01-13T22:15:49.476Z,20.75
2023-01-13T22:18:18.453Z,19.70
2023-01-13T22:20:46.276Z,19.23
2023-01-13T22:23:13.274Z,19.75
2023-01-13T22:25:40.247Z,21.17
2023-01-13T22:28:09.275Z,19.92
2023-01-13T22:30:36.389Z,19.67
2023-01-13T22:33:03.379Z,19.55
2023-01-13T22:35:30.348Z,18.33
2023-01-13T22:37:58.079Z,18.95
2023-01-13T22:40:25.086Z,19.48
2023-01-13T22:42:51.979Z,19.17
2023-01-13T22:45:18.953Z,18.95
2023-01-13T22:47:45.904Z,19.88
2023-01-13T22:50:12.798Z,19.42
2023-01-13T22:52:39.961Z,18.52
2023-01-13T22:55:07.660Z,19.55
2023-01-13T22:57:46.663Z,19.27
2023-01-13T23:00:15.126Z,18.30
2023-01-13T23:02:42.189Z,20.98
2023-01-13T23:05:09.301Z,22.50
2023-01-13T23:07:36.315Z,18.42
2023-01-13T23:10:04.454Z,17.77
2023-01-13T23:12:31.484Z,17.13
2023-01-13T23:14:58.356Z,17.50
2023-01-13T23:17:25.218Z,17.83
2023-01-13T23:19:52.252Z,17.42
2023-01-13T23:22:19.334Z,17.70
2023-01-13T23:24:46.249Z,17.10
2023-01-13T23:27:13.191Z,17.55
2023-01-13T23:29:40.229Z,19.10
2023-01-13T23:32:07.288Z,17.08
2023-01-13T23:34:34.150Z,19.20
2023-01-13T23:37:01.077Z,18.10
2023-01-13T23:39:28.343Z,18.13
2023-01-13T23:41:55.228Z,17.35
2023-01-13T23:44:22.278Z,16.48
2023-01-13T23:46:49.143Z,15.57
2023-01-13T23:49:16.069Z,15.70
2023-01-13T23:51:43.077Z,15.00
2023-01-13T23:54:09.991Z,15.35
2023-01-13T23:56:39.676Z,14.88
2023-01-13T23:59:07.175Z,15.93
